createdAt,value
2018-04-20T00:01:56.834Z,54.71
2018-04-20T00:04:24.508Z,54.84
2018-04-20T00:06:52.060Z,54.90
2018-04-20T00:09:19.603Z,55.01
2018-04-20T00:11:47.201Z,55.19
2018-04-20T00:14:14.740Z,55.08
2018-04-20T00:16:42.290Z,55.17
2018-04-20T00:19:09.902Z,55.06
2018-04-20T00:21:37.441Z,55.30
2018-04-20T00:24:05.013Z,55.03
2018-04-20T00:26:32.625Z,55.00
2018-04-20T00:29:00.191Z,55.31
2018-04-20T00:31:27.741Z,55.47
2018-04-20T00:33:55.474Z,55.42
2018-04-20T00:36:23.032Z,55.48
2018-04-20T00:38:50.575Z,54.78
2018-04-20T00:41:18.299Z,55.18
2018-04-20T00:43:45.859Z,55.32
2018-04-20T00:46:13.434Z,54.88
2018-04-20T00:48:42.578Z,55.14
2018-04-20T00:51:10.123Z,55.46
2018-04-20T00:53:49.437Z,55.67
2018-04-20T00:56:16.980Z,55.80
2018-04-20T00:58:44.530Z,55.60
2018-04-20T01:01:12.105Z,55.70
2018-04-20T01:03:39.637Z,56.02
2018-04-20T01:06:07.184Z,56.24
2018-04-20T01:08:34.890Z,56.12
2018-04-20T01:11:02.470Z,56.04
2018-04-20T01:13:29.998Z,56.19
2018-04-20T01:15:57.724Z,56.27
2018-04-20T01:18:25.260Z,56.42
2018-04-20T01:20:52.796Z,56.45
2018-04-20T01:23:20.364Z,56.42
2018-04-20T01:25:47.916Z,56.31
2018-04-20T01:28:15.455Z,56.10
2018-04-20T01:30:43.020Z,56.14
2018-04-20T01:33:10.616Z,55.93
2018-04-20T01:35:38.152Z,56.30
2018-04-20T01:38:05.708Z,56.04
2018-04-20T01:40:33.249Z,56.07
2018-04-20T01:43:00.793Z,55.94
2018-04-20T01:45:28.459Z,56.07
2018-04-20T01:47:55.991Z,56.29
2018-04-20T01:50:23.530Z,55.65
2018-04-20T01:52:51.093Z,56.13
2018-04-20T01:55:18.656Z,55.59
2018-04-20T01:57:46.211Z,56.04
2018-04-20T02:00:13.919Z,55.69
2018-04-20T02:02:41.465Z,55.68
2018-04-20T02:05:09.008Z,55.69
2018-04-20T02:07:36.736Z,55.68
2018-04-20T02:10:04.325Z,55.56
2018-04-20T02:12:31.871Z,55.61
2018-04-20T02:14:59.456Z,55.77
2018-04-20T02:17:27.005Z,56.08
2018-04-20T02:19:54.551Z,56.51
2018-04-20T02:22:22.124Z,56.52
2018-04-20T02:24:49.676Z,56.25
2018-04-20T02:27:17.210Z,56.89
2018-04-20T02:29:44.870Z,56.49
2018-04-20T02:32:12.413Z,56.35
2018-04-20T02:34:39.946Z,56.37
2018-04-20T02:37:07.489Z,56.65
2018-04-20T02:39:35.063Z,56.71
2018-04-20T02:42:02.648Z,56.45
2018-04-20T02:44:30.180Z,56.44
2018-04-20T02:46:57.734Z,56.71
2018-04-20T02:49:25.449Z,56.71
2018-04-20T02:51:52.992Z,56.91
2018-04-20T02:54:20.544Z,56.52
2018-04-20T02:56:48.153Z,56.66
2018-04-20T02:59:15.696Z,56.84
2018-04-20T03:01:43.238Z,56.63
2018-04-20T03:04:10.818Z,56.92
2018-04-20T03:06:38.376Z,57.08
2018-04-20T03:09:06.773Z,56.76
2018-04-20T03:11:34.444Z,57.03
2018-04-20T03:14:01.988Z,57.13
2018-04-20T03:16:29.572Z,57.08
2018-04-20T03:18:57.164Z,57.19
2018-04-20T03:21:24.709Z,56.99
2018-04-20T03:23:52.284Z,56.85
2018-04-20T03:26:20.024Z,56.81
2018-04-20T03:28:47.575Z,56.85
2018-04-20T03:31:15.121Z,57.01
2018-04-20T03:33:42.774Z,57.25
2018-04-20T03:36:10.315Z,57.31
2018-04-20T03:38:37.853Z,57.45
2018-04-20T03:41:05.433Z,57.57
2018-04-20T03:43:32.970Z,57.57
2018-04-20T03:46:00.537Z,57.14
2018-04-20T03:48:28.384Z,57.37
2018-04-20T03:50:55.933Z,57.22
2018-04-20T03:53:23.470Z,57.41
2018-04-20T03:55:51.059Z,57.05
2018-04-20T03:58:18.610Z,57.33
2018-04-20T04:00:46.156Z,57.76
2018-04-20T04:03:14.014Z,57.63
2018-04-20T04:05:41.560Z,57.41
2018-04-20T04:08:09.107Z,57.54
2018-04-20T04:10:36.969Z,57.42
2018-04-20T04:13:04.531Z,57.03
2018-04-20T04:15:32.094Z,57.36
2018-04-20T04:18:11.325Z,56.78
2018-04-20T04:20:43.844Z,56.76
2018-04-20T04:23:23.122Z,56.27
2018-04-20T04:26:02.324Z,56.54
2018-04-20T04:28:29.971Z,56.13
2018-04-20T04:30:57.521Z,56.29
2018-04-20T04:33:25.086Z,56.49
2018-04-20T04:35:52.639Z,56.22
2018-04-20T04:38:20.191Z,55.85
2018-04-20T04:40:47.862Z,55.88
2018-04-20T04:43:15.403Z,55.76
2018-04-20T04:45:42.945Z,55.54
2018-04-20T04:48:10.538Z,55.54
2018-04-20T04:50:38.088Z,55.26
2018-04-20T04:53:05.631Z,55.10
2018-04-20T04:55:33.355Z,55.14
2018-04-20T04:58:00.895Z,54.60
2018-04-20T05:00:28.452Z,54.33
2018-04-20T05:02:56.055Z,54.29
2018-04-20T05:05:23.606Z,53.54
2018-04-20T05:07:51.160Z,54.20
2018-04-20T05:10:18.808Z,53.50
2018-04-20T05:12:46.344Z,52.94
2018-04-20T05:15:13.880Z,52.49
2018-04-20T05:17:41.454Z,52.57
2018-04-20T05:20:09.003Z,52.27
2018-04-20T05:22:36.553Z,52.67
2018-04-20T05:25:04.233Z,52.69
2018-04-20T05:27:31.788Z,52.27
2018-04-20T05:29:59.341Z,53.02
2018-04-20T05:32:27.085Z,53.12
2018-04-20T05:34:54.623Z,52.98
2018-04-20T05:37:22.172Z,53.26
2018-04-20T05:39:49.735Z,53.62
2018-04-20T05:42:17.313Z,53.59
2018-04-20T05:44:44.884Z,53.72
2018-04-20T05:47:12.588Z,53.22
2018-04-20T05:49:40.161Z,53.15
2018-04-20T05:52:07.737Z,53.24
2018-04-20T05:54:35.325Z,53.34
2018-04-20T05:57:02.891Z,53.47
2018-04-20T05:59:30.472Z,53.52
2018-04-20T06:01:58.605Z,53.82
2018-04-20T06:04:26.172Z,54.25
2018-04-20T06:06:53.745Z,54.53
2018-04-20T06:09:21.459Z,54.41
2018-04-20T06:11:49.023Z,54.50
2018-04-20T06:14:16.599Z,54.60
2018-04-20T06:16:44.200Z,54.38
2018-04-20T06:19:11.766Z,54.37
2018-04-20T06:21:39.330Z,53.84
2018-04-20T06:24:07.023Z,53.21
2018-04-20T06:26:34.590Z,53.55
2018-04-20T06:29:02.181Z,52.51
2018-04-20T06:31:29.818Z,53.04
2018-04-20T06:33:57.365Z,53.13
2018-04-20T06:36:24.916Z,53.35
2018-04-20T06:38:52.677Z,53.34
2018-04-20T06:41:20.272Z,53.25
2018-04-20T06:43:47.823Z,53.34
2018-04-20T06:46:15.578Z,52.76
2018-04-20T06:48:43.126Z,52.91
2018-04-20T06:51:10.672Z,53.20
2018-04-20T06:53:38.234Z,53.06
2018-04-20T06:56:05.775Z,52.51
2018-04-20T06:58:33.357Z,51.69
2018-04-20T07:01:01.204Z,51.46
2018-04-20T07:03:28.761Z,51.20
2018-04-20T07:05:56.316Z,50.64
2018-04-20T07:08:24.061Z,50.07
2018-04-20T07:10:51.595Z,49.21
2018-04-20T07:13:19.145Z,49.15
2018-04-20T07:15:46.740Z,47.23
2018-04-20T07:18:14.286Z,45.05
2018-04-20T07:20:41.832Z,44.08
2018-04-20T07:23:09.431Z,41.37
2018-04-20T07:25:36.972Z,41.04
2018-04-20T07:28:04.531Z,39.74
2018-04-20T07:30:32.117Z,38.80
2018-04-20T07:32:59.674Z,38.37
2018-04-20T07:35:27.209Z,38.48
2018-04-20T07:37:54.752Z,38.46
2018-04-20T07:40:22.305Z,38.68
2018-04-20T07:42:49.892Z,38.05
2018-04-20T07:45:17.883Z,39.12
2018-04-20T07:47:45.431Z,38.67
2018-04-20T07:50:13.108Z,38.95
2018-04-20T07:52:40.653Z,39.15
2018-04-20T07:55:08.209Z,39.18
2018-04-20T07:57:35.787Z,37.91
2018-04-20T08:00:03.364Z,38.68
2018-04-20T08:02:30.925Z,38.49
2018-04-20T08:04:58.638Z,39.06
2018-04-20T08:07:26.189Z,39.54
2018-04-20T08:09:53.733Z,41.08
2018-04-20T08:12:21.332Z,41.39
2018-04-20T08:14:48.871Z,42.15
2018-04-20T08:17:16.409Z,41.76
2018-04-20T08:19:43.984Z,42.48
2018-04-20T08:22:11.517Z,42.81
2018-04-20T08:24:39.067Z,42.36
2018-04-20T08:27:06.664Z,42.49
2018-04-20T08:29:34.221Z,43.53
2018-04-20T08:32:01.791Z,45.34
2018-04-20T08:34:29.521Z,47.29
2018-04-20T08:36:57.068Z,47.22
2018-04-20T08:39:24.612Z,46.70
2018-04-20T08:41:52.290Z,47.74
2018-04-20T08:44:19.835Z,47.24
2018-04-20T08:46:47.388Z,46.10
2018-04-20T08:49:15.059Z,44.35
2018-04-20T08:51:42.588Z,43.81
2018-04-20T08:54:10.128Z,43.73
2018-04-20T08:56:37.712Z,42.91
2018-04-20T08:59:05.257Z,41.90
2018-04-20T09:01:32.803Z,41.77
2018-04-20T09:04:00.560Z,41.55
2018-04-20T09:06:28.109Z,42.42
2018-04-20T09:08:55.682Z,41.95
2018-04-20T09:11:23.392Z,41.72
2018-04-20T09:13:50.951Z,41.94
2018-04-20T09:16:18.571Z,40.85
2018-04-20T09:18:46.157Z,38.96
2018-04-20T09:21:13.714Z,38.50
2018-04-20T09:23:41.257Z,38.87
2018-04-20T09:26:08.857Z,38.27
2018-04-20T09:28:36.439Z,38.52
2018-04-20T09:31:03.984Z,39.26
2018-04-20T09:33:31.566Z,38.78
2018-04-20T09:35:59.132Z,38.00
2018-04-20T09:38:26.688Z,38.42
2018-04-20T09:40:54.289Z,38.50
2018-04-20T09:43:21.839Z,35.23
2018-04-20T09:45:49.384Z,36.48
2018-04-20T09:48:16.972Z,35.25
2018-04-20T09:50:44.564Z,35.77
2018-04-20T09:53:12.092Z,35.75
2018-04-20T09:55:39.694Z,35.99
2018-04-20T09:58:07.240Z,36.03
2018-04-20T10:00:40.246Z,35.19
2018-04-20T10:03:07.813Z,34.44
2018-04-20T10:05:35.425Z,34.63
2018-04-20T10:08:03.093Z,33.66
2018-04-20T10:10:30.631Z,33.50
2018-04-20T10:12:58.169Z,33.95
2018-04-20T10:15:25.759Z,33.27
2018-04-20T10:17:53.288Z,31.99
2018-04-20T10:20:20.820Z,33.89
2018-04-20T10:22:48.402Z,33.93
2018-04-20T10:25:15.944Z,33.89
2018-04-20T10:27:43.491Z,33.82
2018-04-20T10:30:11.066Z,34.50
2018-04-20T10:32:38.617Z,34.07
2018-04-20T10:35:06.157Z,32.19
2018-04-20T10:37:33.691Z,32.12
2018-04-20T10:40:01.245Z,32.78
2018-04-20T10:42:29.101Z,33.69
2018-04-20T10:44:56.664Z,34.24
2018-04-20T10:47:24.196Z,34.70
2018-04-20T10:49:51.773Z,35.38
2018-04-20T10:52:19.325Z,36.58
2018-04-20T10:54:46.872Z,38.21
2018-04-20T10:57:14.440Z,40.38
2018-04-20T10:59:41.984Z,41.07
2018-04-20T11:02:09.534Z,40.89
2018-04-20T11:04:37.265Z,40.81
2018-04-20T11:07:04.817Z,41.21
2018-04-20T11:09:32.364Z,41.63
2018-04-20T11:12:00.117Z,41.08
2018-04-20T11:14:27.657Z,40.11
2018-04-20T11:16:55.201Z,39.07
2018-04-20T11:19:22.792Z,39.94
2018-04-20T11:21:50.332Z,39.00
2018-04-20T11:24:17.883Z,38.82
2018-04-20T11:26:45.469Z,38.93
2018-04-20T11:29:13.012Z,39.85
2018-04-20T11:31:40.554Z,41.45
2018-04-20T11:34:08.238Z,40.72
2018-04-20T11:36:35.780Z,41.01
2018-04-20T11:39:03.388Z,41.47
2018-04-20T11:41:31.064Z,41.62
2018-04-20T11:43:58.610Z,41.31
2018-04-20T11:46:26.152Z,40.90
2018-04-20T11:48:53.725Z,40.82
2018-04-20T11:51:21.274Z,40.27
2018-04-20T11:53:48.878Z,41.13
2018-04-20T11:56:16.413Z,41.76
2018-04-20T11:58:43.952Z,40.67
2018-04-20T12:01:11.492Z,41.36
2018-04-20T12:03:39.219Z,39.57
2018-04-20T12:06:06.762Z,40.87
2018-04-20T12:08:34.304Z,44.83
2018-04-20T12:11:01.899Z,44.65
2018-04-20T12:13:29.482Z,44.70
2018-04-20T12:15:57.026Z,43.59
2018-04-20T12:18:24.849Z,44.46
2018-04-20T12:20:52.395Z,43.13
2018-04-20T12:23:19.941Z,44.76
2018-04-20T12:25:47.613Z,46.24
2018-04-20T12:28:15.172Z,48.22
2018-04-20T12:30:42.709Z,49.29
2018-04-20T12:33:10.283Z,49.38
2018-04-20T12:35:37.838Z,48.69
2018-04-20T12:38:05.382Z,49.09
2018-04-20T12:40:32.960Z,50.06
2018-04-20T12:43:00.507Z,49.69
2018-04-20T12:45:28.070Z,49.27
2018-04-20T12:47:55.685Z,48.74
2018-04-20T12:50:23.245Z,48.18
2018-04-20T12:52:50.839Z,48.16
2018-04-20T12:55:18.413Z,46.17
2018-04-20T12:57:45.985Z,45.97
2018-04-20T13:00:13.532Z,46.02
2018-04-20T13:02:41.293Z,45.32
2018-04-20T13:05:08.866Z,44.57
2018-04-20T13:07:36.411Z,44.93
2018-04-20T13:10:04.166Z,45.51
2018-04-20T13:12:31.708Z,46.09
2018-04-20T13:14:59.266Z,45.87
2018-04-20T13:17:26.839Z,45.10
2018-04-20T13:19:54.373Z,44.36
2018-04-20T13:22:21.925Z,43.28
2018-04-20T13:24:49.528Z,43.47
2018-04-20T13:27:17.081Z,44.25
2018-04-20T13:29:44.620Z,43.56
2018-04-20T13:32:12.381Z,43.05
2018-04-20T13:34:39.926Z,43.12
2018-04-20T13:37:07.501Z,44.16
2018-04-20T13:39:35.220Z,45.66
2018-04-20T13:42:02.819Z,45.51
2018-04-20T13:44:30.398Z,45.65
2018-04-20T13:46:57.963Z,47.73
2018-04-20T13:49:25.520Z,47.34
2018-04-20T13:51:53.094Z,47.37
2018-04-20T13:54:20.680Z,46.62
2018-04-20T13:56:48.220Z,47.67
2018-04-20T13:59:15.756Z,48.55
2018-04-20T14:01:43.346Z,48.20
2018-04-20T14:04:10.878Z,47.44
2018-04-20T14:06:38.430Z,46.37
2018-04-20T14:09:06.957Z,45.37
2018-04-20T14:11:34.513Z,46.70
2018-04-20T14:14:02.053Z,46.92
2018-04-20T14:16:29.615Z,46.92
2018-04-20T14:18:57.158Z,46.85
2018-04-20T14:21:24.704Z,47.54
2018-04-20T14:23:52.278Z,48.00
2018-04-20T14:26:19.861Z,47.94
2018-04-20T14:28:47.416Z,45.86
2018-04-20T14:31:15.276Z,45.63
2018-04-20T14:33:42.845Z,46.90
2018-04-20T14:36:10.380Z,46.03
2018-04-20T14:38:37.941Z,45.89
2018-04-20T14:41:05.485Z,46.76
2018-04-20T14:43:33.056Z,46.69
2018-04-20T14:46:00.613Z,45.56
2018-04-20T14:48:28.208Z,46.13
2018-04-20T14:50:55.983Z,44.72
2018-04-20T14:53:23.501Z,44.82
2018-04-20T14:55:51.048Z,43.34
2018-04-20T14:58:19.703Z,42.47
2018-04-20T15:00:47.303Z,40.00
2018-04-20T15:03:14.896Z,39.45
2018-04-20T15:05:42.761Z,38.73
2018-04-20T15:08:10.327Z,38.43
2018-04-20T15:10:37.892Z,39.47
2018-04-20T15:13:05.486Z,38.61
2018-04-20T15:15:33.058Z,38.30
2018-04-20T15:18:00.642Z,38.76
2018-04-20T15:20:28.403Z,39.77
2018-04-20T15:22:55.952Z,39.95
2018-04-20T15:25:23.524Z,38.85
2018-04-20T15:27:51.258Z,38.88
2018-04-20T15:30:18.804Z,38.24
2018-04-20T15:32:46.417Z,37.58
2018-04-20T15:35:14.172Z,38.27
2018-04-20T15:37:41.716Z,38.31
2018-04-20T15:40:09.261Z,37.38
2018-04-20T15:42:36.881Z,36.60
2018-04-20T15:45:04.430Z,36.80
2018-04-20T15:47:31.992Z,37.97
2018-04-20T15:49:59.594Z,38.55
2018-04-20T15:52:27.179Z,39.18
2018-04-20T15:54:54.771Z,40.43
2018-04-20T15:57:22.367Z,40.53
2018-04-20T15:59:49.905Z,40.24
2018-04-20T16:02:17.440Z,40.32
2018-04-20T16:04:45.031Z,39.86
2018-04-20T16:07:12.580Z,39.19
2018-04-20T16:09:40.124Z,39.04
2018-04-20T16:12:07.741Z,39.59
2018-04-20T16:14:35.281Z,40.76
2018-04-20T16:17:02.823Z,39.63
2018-04-20T16:19:30.402Z,40.42
2018-04-20T16:21:57.958Z,40.44
2018-04-20T16:24:25.500Z,41.33
2018-04-20T16:26:53.231Z,41.71
2018-04-20T16:29:20.795Z,41.92
2018-04-20T16:31:48.333Z,41.80
2018-04-20T16:34:15.913Z,41.60
2018-04-20T16:36:43.478Z,41.93
2018-04-20T16:39:11.051Z,42.55
2018-04-20T16:41:38.738Z,42.82
2018-04-20T16:44:06.280Z,43.94
2018-04-20T16:46:33.822Z,42.21
2018-04-20T16:49:01.408Z,42.64
2018-04-20T16:51:28.966Z,42.69
2018-04-20T16:53:56.516Z,43.35
2018-04-20T16:56:24.092Z,42.62
2018-04-20T16:58:51.639Z,42.79
2018-04-20T17:01:19.301Z,43.51
2018-04-20T17:03:46.861Z,43.75
2018-04-20T17:06:14.431Z,43.41
2018-04-20T17:08:41.981Z,43.66
2018-04-20T17:11:09.587Z,44.21
2018-04-20T17:13:37.137Z,44.41
2018-04-20T17:16:04.732Z,45.00
2018-04-20T17:18:32.329Z,45.31
2018-04-20T17:20:59.870Z,45.73
2018-04-20T17:23:27.412Z,46.16
2018-04-20T17:25:54.995Z,46.05
2018-04-20T17:28:22.545Z,46.63
2018-04-20T17:30:50.107Z,46.84
2018-04-20T17:33:17.692Z,46.94
2018-04-20T17:35:45.261Z,47.46
2018-04-20T17:38:12.859Z,47.77
2018-04-20T17:40:40.446Z,48.09
2018-04-20T17:43:07.997Z,47.93
2018-04-20T17:45:35.569Z,48.57
2018-04-20T17:48:03.309Z,49.68
2018-04-20T17:50:30.858Z,49.49
2018-04-20T17:52:58.424Z,48.47
2018-04-20T17:55:26.301Z,48.37
2018-04-20T17:57:53.870Z,47.86
2018-04-20T18:00:21.440Z,48.36
2018-04-20T18:02:49.209Z,48.94
2018-04-20T18:05:16.784Z,48.80
2018-04-20T18:07:44.421Z,49.91
2018-04-20T18:10:12.140Z,50.12
2018-04-20T18:12:39.702Z,50.41
2018-04-20T18:15:07.322Z,50.24
2018-04-20T18:17:34.918Z,50.68
2018-04-20T18:20:02.481Z,50.64
2018-04-20T18:22:30.053Z,51.30
2018-04-20T18:24:57.779Z,51.02
2018-04-20T18:27:25.338Z,51.44
2018-04-20T18:29:52.977Z,51.84
2018-04-20T18:32:20.702Z,51.88
2018-04-20T18:34:48.252Z,52.07
2018-04-20T18:37:15.807Z,52.29
2018-04-20T18:39:43.408Z,52.04
2018-04-20T18:42:10.984Z,52.05
2018-04-20T18:44:38.553Z,52.25
2018-04-20T18:47:06.250Z,52.50
2018-04-20T18:49:33.874Z,52.64
2018-04-20T18:52:01.421Z,52.77
2018-04-20T18:54:29.105Z,52.89
2018-04-20T18:56:56.661Z,53.12
2018-04-20T18:59:24.215Z,53.25
2018-04-20T19:01:51.942Z,53.44
2018-04-20T19:04:19.484Z,52.95
2018-04-20T19:06:47.038Z,53.06
2018-04-20T19:09:14.626Z,52.97
2018-04-20T19:11:42.183Z,53.09
2018-04-20T19:14:09.802Z,53.12
2018-04-20T19:16:37.371Z,53.05
2018-04-20T19:19:05.870Z,53.19
2018-04-20T19:21:33.430Z,53.06
2018-04-20T19:24:01.610Z,52.74
2018-04-20T19:26:29.198Z,53.31
2018-04-20T19:28:56.741Z,53.41
2018-04-20T19:31:24.617Z,53.41
2018-04-20T19:33:52.187Z,53.77
2018-04-20T19:36:19.785Z,53.93
2018-04-20T19:38:47.347Z,54.05
2018-04-20T19:41:14.900Z,54.01
2018-04-20T19:43:42.787Z,54.30
2018-04-20T19:46:10.329Z,54.71
2018-04-20T19:48:37.894Z,54.77
2018-04-20T19:51:05.476Z,54.77
2018-04-20T19:53:33.044Z,55.15
2018-04-20T19:56:00.589Z,54.87
2018-04-20T19:58:28.183Z,54.66
2018-04-20T20:00:55.742Z,54.65
2018-04-20T20:03:23.299Z,54.14
2018-04-20T20:05:50.917Z,54.06
2018-04-20T20:08:18.478Z,53.97
2018-04-20T20:10:46.024Z,53.57
2018-04-20T20:13:13.599Z,53.09
2018-04-20T20:15:41.161Z,53.14
2018-04-20T20:18:08.705Z,52.97
2018-04-20T20:20:36.440Z,52.57
2018-04-20T20:23:03.985Z,52.54
2018-04-20T20:25:31.567Z,52.58
2018-04-20T20:27:59.416Z,53.06
2018-04-20T20:30:26.977Z,52.83
2018-04-20T20:32:54.559Z,53.28
2018-04-20T20:35:22.154Z,53.19
2018-04-20T20:37:49.696Z,52.79
2018-04-20T20:40:17.282Z,53.41
2018-04-20T20:42:45.006Z,53.70
2018-04-20T20:45:12.550Z,54.00
2018-04-20T20:47:40.091Z,55.12
2018-04-20T20:50:07.771Z,54.20
2018-04-20T20:52:35.328Z,54.27
2018-04-20T20:55:02.899Z,55.59
2018-04-20T20:57:30.474Z,56.24
2018-04-20T20:59:58.025Z,56.57
2018-04-20T21:02:25.600Z,57.51
2018-04-20T21:04:53.492Z,56.59
2018-04-20T21:07:21.026Z,56.66
2018-04-20T21:09:48.625Z,57.58
2018-04-20T21:12:16.213Z,58.63
2018-04-20T21:14:43.760Z,59.23
2018-04-20T21:17:11.308Z,59.64
2018-04-20T21:19:39.152Z,60.07
2018-04-20T21:22:06.693Z,60.66
2018-04-20T21:24:34.230Z,61.19
2018-04-20T21:27:01.881Z,61.55
2018-04-20T21:29:29.428Z,61.71
2018-04-20T21:31:56.966Z,62.01
2018-04-20T21:34:24.529Z,62.25
2018-04-20T21:36:52.071Z,62.41
2018-04-20T21:39:19.638Z,62.84
2018-04-20T21:41:47.215Z,62.86
2018-04-20T21:44:14.777Z,63.08
2018-04-20T21:46:42.344Z,62.96
2018-04-20T21:49:09.939Z,63.43
2018-04-20T21:51:37.484Z,63.67
2018-04-20T21:54:05.036Z,64.02
2018-04-20T21:56:32.625Z,64.07
2018-04-20T21:59:00.168Z,64.35
2018-04-20T22:01:27.716Z,64.17
2018-04-20T22:03:55.396Z,64.13
2018-04-20T22:06:22.944Z,64.32
2018-04-20T22:08:50.486Z,64.49
2018-04-20T22:11:18.063Z,64.63
2018-04-20T22:13:45.625Z,64.84
2018-04-20T22:16:13.232Z,65.20
2018-04-20T22:18:40.961Z,64.88
2018-04-20T22:21:08.499Z,65.04
2018-04-20T22:23:36.049Z,65.44
2018-04-20T22:26:03.616Z,65.70
2018-04-20T22:28:31.145Z,65.67
2018-04-20T22:30:58.684Z,65.87
2018-04-20T22:33:26.256Z,66.22
2018-04-20T22:35:53.801Z,66.64
2018-04-20T22:38:21.344Z,66.84
2018-04-20T22:40:49.010Z,66.72
2018-04-20T22:43:16.548Z,66.85
2018-04-20T22:45:44.084Z,66.85
2018-04-20T22:48:11.676Z,66.82
2018-04-20T22:50:39.218Z,66.59
2018-04-20T22:53:06.759Z,66.73
2018-04-20T22:55:34.493Z,67.17
2018-04-20T22:58:02.038Z,67.46
2018-04-20T23:00:29.576Z,67.60
2018-04-20T23:02:57.344Z,67.69
2018-04-20T23:05:24.887Z,67.93
2018-04-20T23:07:52.464Z,68.08
2018-04-20T23:10:20.142Z,68.21
2018-04-20T23:12:47.684Z,68.40
2018-04-20T23:15:15.228Z,68.57
2018-04-20T23:17:42.900Z,68.73
2018-04-20T23:20:10.436Z,69.12
2018-04-20T23:22:37.977Z,69.08
2018-04-20T23:25:05.729Z,68.96
2018-04-20T23:27:33.278Z,68.92
2018-04-20T23:30:00.810Z,69.02
2018-04-20T23:32:28.387Z,69.22
2018-04-20T23:34:55.921Z,69.39
2018-04-20T23:37:23.462Z,69.55
2018-04-20T23:39:51.213Z,69.59
2018-04-20T23:42:18.739Z,69.57
2018-04-20T23:44:46.283Z,69.79
2018-04-20T23:47:13.855Z,69.84
2018-04-20T23:49:41.409Z,69.85
2018-04-20T23:52:08.944Z,69.83
2018-04-20T23:54:36.621Z,69.75
2018-04-20T23:57:04.157Z,69.89
2018-04-20T23:59:31.692Z,69.73
